sensor_id;sensor_type;location;lat;lon;timestamp;pressure;altitude;pressure_sealevel;temperature;humidity
52105;BME280;38103;42.776;23.112;2022-11-15T00:01:45;94511.47;;;1.19;100.00
52105;BME280;38103;42.776;23.112;2022-11-15T00:04:11;94497.31;;;1.05;100.00
52105;BME280;38103;42.776;23.112;2022-11-15T00:06:36;94473.22;;;0.95;100.00
52105;BME280;38103;42.776;23.112;2022-11-15T00:09:02;94516.38;;;1.22;100.00
52105;BME280;38103;42.776;23.112;2022-11-15T00:11:27;94444.06;;;0.83;100.00
52105;BME280;38103;42.776;23.112;2022-11-15T00:13:57;94515.38;;;1.32;100.00
52105;BME280;38103;42.776;23.112;2022-11-15T00:16:23;94520.59;;;1.32;100.00
52105;BME280;38103;42.776;23.112;2022-11-15T00:18:49;94512.47;;;1.35;100.00
52105;BME280;38103;42.776;23.112;2022-11-15T00:21:15;94507.91;;;1.37;100.00
52105;BME280;38103;42.776;23.112;2022-11-15T00:23:41;94506.44;;;1.43;100.00
52105;BME280;38103;42.776;23.112;2022-11-15T00:26:08;94508.53;;;1.48;100.00
52105;BME280;38103;42.776;23.112;2022-11-15T00:28:35;94507.91;;;1.37;100.00
52105;BME280;38103;42.776;23.112;2022-11-15T00:31:02;94479.41;;;1.19;100.00
52105;BME280;38103;42.776;23.112;2022-11-15T00:33:28;94505.94;;;1.39;100.00
52105;BME280;38103;42.776;23.112;2022-11-15T00:35:53;94484.44;;;1.37;100.00
52105;BME280;38103;42.776;23.112;2022-11-15T00:38:18;94468.16;;;1.52;100.00
52105;BME280;38103;42.776;23.112;2022-11-15T00:40:44;94500.69;;;1.81;100.00
52105;BME280;38103;42.776;23.112;2022-11-15T00:43:09;94500.53;;;1.83;100.00
52105;BME280;38103;42.776;23.112;2022-11-15T00:45:35;94494.50;;;1.82;100.00
52105;BME280;38103;42.776;23.112;2022-11-15T00:48:00;94491.25;;;1.80;100.00
52105;BME280;38103;42.776;23.112;2022-11-15T00:50:25;94488.97;;;1.69;100.00
52105;BME280;38103;42.776;23.112;2022-11-15T00:52:51;94488.97;;;1.69;100.00
52105;BME280;38103;42.776;23.112;2022-11-15T00:55:17;94493.53;;;1.75;100.00
52105;BME280;38103;42.776;23.112;2022-11-15T00:57:43;94487.66;;;1.73;100.00
52105;BME280;38103;42.776;23.112;2022-11-15T01:00:10;94488.66;;;1.63;100.00
52105;BME280;38103;42.776;23.112;2022-11-15T01:02:35;94489.16;;;1.59;100.00
52105;BME280;38103;42.776;23.112;2022-11-15T01:05:01;94485.75;;;1.50;100.00
52105;BME280;38103;42.776;23.112;2022-11-15T01:07:26;94490.63;;;1.44;100.00
52105;BME280;38103;42.776;23.112;2022-11-15T01:09:51;94493.91;;;1.38;100.00
52105;BME280;38103;42.776;23.112;2022-11-15T01:12:17;94435.97;;;1.03;100.00
52105;BME280;38103;42.776;23.112;2022-11-15T01:14:42;94495.88;;;1.36;100.00
52105;BME280;38103;42.776;23.112;2022-11-15T01:17:08;94492.59;;;1.17;100.00
52105;BME280;38103;42.776;23.112;2022-11-15T01:19:33;94483.78;;;1.02;100.00
52105;BME280;38103;42.776;23.112;2022-11-15T01:21:58;94486.72;;;0.90;100.00
52105;BME280;38103;42.776;23.112;2022-11-15T01:24:24;94486.88;;;0.88;100.00
52105;BME280;38103;42.776;23.112;2022-11-15T01:26:49;94479.56;;;0.92;100.00
52105;BME280;38103;42.776;23.112;2022-11-15T01:29:14;94485.41;;;0.94;100.00
52105;BME280;38103;42.776;23.112;2022-11-15T01:31:40;94482.34;;;1.07;100.00
52105;BME280;38103;42.776;23.112;2022-11-15T01:34:05;94483.47;;;1.21;100.00
52105;BME280;38103;42.776;23.112;2022-11-15T01:36:31;94479.91;;;1.22;100.00
52105;BME280;38103;42.776;23.112;2022-11-15T01:38:57;94416.75;;;0.62;100.00
52105;BME280;38103;42.776;23.112;2022-11-15T01:41:28;94475.97;;;0.76;100.00
52105;BME280;38103;42.776;23.112;2022-11-15T01:44:31;94479.84;;;0.72;100.00
52105;BME280;38103;42.776;23.112;2022-11-15T01:46:46;94474.28;;;0.59;100.00
52105;BME280;38103;42.776;23.112;2022-11-15T01:49:18;94439.25;;;0.36;100.00
52105;BME280;38103;42.776;23.112;2022-11-15T01:51:44;94480.50;;;0.66;100.00
52105;BME280;38103;42.776;23.112;2022-11-15T01:54:13;94487.66;;;0.81;100.00
52105;BME280;38103;42.776;23.112;2022-11-15T01:57:08;94483.31;;;0.89;100.00
52105;BME280;38103;42.776;23.112;2022-11-15T01:59:35;94485.72;;;0.83;100.00
52105;BME280;38103;42.776;23.112;2022-11-15T02:02:00;94475.91;;;0.60;100.00
52105;BME280;38103;42.776;23.112;2022-11-15T02:04:28;94475.56;;;0.46;100.00
52105;BME280;38103;42.776;23.112;2022-11-15T02:06:55;94422.81;;;0.19;100.00
52105;BME280;38103;42.776;23.112;2022-11-15T02:09:20;94474.31;;;0.67;100.00
52105;BME280;38103;42.776;23.112;2022-11-15T02:11:47;94475.63;;;0.71;100.00
52105;BME280;38103;42.776;23.112;2022-11-15T02:14:14;94468.78;;;0.78;100.00
52105;BME280;38103;42.776;23.112;2022-11-15T02:17:02;94470.41;;;0.71;100.00
52105;BME280;38103;42.776;23.112;2022-11-15T02:30:55;94456.41;;;0.72;100.00
52105;BME280;38103;42.776;23.112;2022-11-15T02:41:54;94456.41;;;0.72;100.00
52105;BME280;38103;42.776;23.112;2022-11-15T02:47:17;94456.72;;;0.52;100.00
52105;BME280;38103;42.776;23.112;2022-11-15T02:52:18;94457.72;;;0.68;100.00
52105;BME280;38103;42.776;23.112;2022-11-15T02:55:03;94454.78;;;0.63;100.00
52105;BME280;38103;42.776;23.112;2022-11-15T03:13:25;94445.03;;;0.57;100.00
52105;BME280;38103;42.776;23.112;2022-11-15T03:16:09;94447.94;;;0.53;100.00
52105;BME280;38103;42.776;23.112;2022-11-15T03:18:47;94448.56;;;0.47;100.00
52105;BME280;38103;42.776;23.112;2022-11-15T03:21:16;94450.50;;;0.45;100.00
52105;BME280;38103;42.776;23.112;2022-11-15T03:23:44;94452.16;;;0.46;100.00
52105;BME280;38103;42.776;23.112;2022-11-15T03:26:13;94455.09;;;0.60;100.00
52105;BME280;38103;42.776;23.112;2022-11-15T03:28:46;94446.84;;;0.81;100.00
52105;BME280;38103;42.776;23.112;2022-11-15T03:31:16;94448.97;;;1.03;100.00
52105;BME280;38103;42.776;23.112;2022-11-15T03:34:05;94439.84;;;1.07;100.00
52105;BME280;38103;42.776;23.112;2022-11-15T03:36:33;94428.44;;;1.16;100.00
52105;BME280;38103;42.776;23.112;2022-11-15T03:39:03;94425.19;;;1.14;100.00
52105;BME280;38103;42.776;23.112;2022-11-15T03:41:37;94434.66;;;1.07;100.00
52105;BME280;38103;42.776;23.112;2022-11-15T03:44:12;94430.25;;;1.07;100.00
52105;BME280;38103;42.776;23.112;2022-11-15T03:46:48;94425.88;;;1.08;100.00
52105;BME280;38103;42.776;23.112;2022-11-15T03:49:27;94400.31;;;0.95;100.00
52105;BME280;38103;42.776;23.112;2022-11-15T03:51:57;94419.03;;;1.15;100.00
52105;BME280;38103;42.776;23.112;2022-11-15T03:54:22;94425.84;;;1.25;100.00
52105;BME280;38103;42.776;23.112;2022-11-15T03:56:48;94412.50;;;1.28;100.00
52105;BME280;38103;42.776;23.112;2022-11-15T03:59:13;94415.25;;;1.34;100.00
52105;BME280;38103;42.776;23.112;2022-11-15T04:01:39;94416.56;;;1.22;100.00
52105;BME280;38103;42.776;23.112;2022-11-15T04:04:04;94419.16;;;1.22;100.00
52105;BME280;38103;42.776;23.112;2022-11-15T04:06:29;94417.38;;;1.31;100.00
52105;BME280;38103;42.776;23.112;2022-11-15T04:08:55;94419.34;;;1.20;100.00
52105;BME280;38103;42.776;23.112;2022-11-15T04:11:20;94414.47;;;1.17;100.00
52105;BME280;38103;42.776;23.112;2022-11-15T04:13:45;94418.66;;;1.35;100.00
52105;BME280;38103;42.776;23.112;2022-11-15T04:16:11;94414.28;;;1.44;100.00
52105;BME280;38103;42.776;23.112;2022-11-15T04:18:36;94397.19;;;1.25;100.00
52105;BME280;38103;42.776;23.112;2022-11-15T04:21:02;94411.16;;;1.40;100.00
52105;BME280;38103;42.776;23.112;2022-11-15T04:23:46;94417.97;;;1.58;100.00
52105;BME280;38103;42.776;23.112;2022-11-15T04:26:32;94411.28;;;1.72;100.00
52105;BME280;38103;42.776;23.112;2022-11-15T04:28:57;94411.91;;;1.83;100.00
52105;BME280;38103;42.776;23.112;2022-11-15T04:31:41;94369.06;;;1.69;100.00
52105;BME280;38103;42.776;23.112;2022-11-15T04:34:07;94409.41;;;1.98;100.00
52105;BME280;38103;42.776;23.112;2022-11-15T04:36:32;94413.25;;;2.10;100.00
52105;BME280;38103;42.776;23.112;2022-11-15T04:39:16;94409.31;;;2.15;100.00
52105;BME280;38103;42.776;23.112;2022-11-15T04:41:41;94409.31;;;2.15;100.00
52105;BME280;38103;42.776;23.112;2022-11-15T04:44:07;94411.59;;;2.09;100.00
52105;BME280;38103;42.776;23.112;2022-11-15T04:46:32;94411.59;;;2.09;100.00
52105;BME280;38103;42.776;23.112;2022-11-15T04:48:58;94420.53;;;2.23;100.00
52105;BME280;38103;42.776;23.112;2022-11-15T04:51:23;94428.31;;;2.32;100.00
52105;BME280;38103;42.776;23.112;2022-11-15T04:53:48;94417.38;;;2.37;100.00
52105;BME280;38103;42.776;23.112;2022-11-15T04:56:14;94422.88;;;2.42;100.00
52105;BME280;38103;42.776;23.112;2022-11-15T04:58:39;94415.50;;;2.45;100.00
52105;BME280;38103;42.776;23.112;2022-11-15T05:01:11;94409.13;;;2.48;100.00
52105;BME280;38103;42.776;23.112;2022-11-15T05:03:38;94407.16;;;2.50;100.00
52105;BME280;38103;42.776;23.112;2022-11-15T05:06:22;94410.78;;;2.49;100.00
52105;BME280;38103;42.776;23.112;2022-11-15T05:08:48;94413.09;;;2.44;100.00
52105;BME280;38103;42.776;23.112;2022-11-15T05:11:13;94406.22;;;2.43;100.00
52105;BME280;38103;42.776;23.112;2022-11-15T05:13:38;94407.53;;;2.47;100.00
52105;BME280;38103;42.776;23.112;2022-11-15T05:16:04;94406.22;;;2.43;100.00
52105;BME280;38103;42.776;23.112;2022-11-15T05:18:29;94399.13;;;2.28;100.00
52105;BME280;38103;42.776;23.112;2022-11-15T05:20:55;94390.94;;;2.08;100.00
52105;BME280;38103;42.776;23.112;2022-11-15T05:23:20;94397.59;;;2.10;100.00
52105;BME280;38103;42.776;23.112;2022-11-15T05:25:45;94403.78;;;2.09;100.00
52105;BME280;38103;42.776;23.112;2022-11-15T05:28:11;94404.78;;;2.08;100.00
52105;BME280;38103;42.776;23.112;2022-11-15T05:30:36;94409.59;;;2.20;100.00
52105;BME280;38103;42.776;23.112;2022-11-15T05:33:01;94404.34;;;2.28;100.00
52105;BME280;38103;42.776;23.112;2022-11-15T05:35:34;94400.06;;;2.36;100.00
52105;BME280;38103;42.776;23.112;2022-11-15T05:38:02;94406.22;;;2.43;100.00
52105;BME280;38103;42.776;23.112;2022-11-15T05:40:28;94412.03;;;2.53;100.00
52105;BME280;38103;42.776;23.112;2022-11-15T05:42:55;94404.41;;;2.52;100.00
52105;BME280;38103;42.776;23.112;2022-11-15T05:45:21;94390.06;;;2.16;100.00
52105;BME280;38103;42.776;23.112;2022-11-15T05:47:47;94412.94;;;2.37;100.00
52105;BME280;38103;42.776;23.112;2022-11-15T05:50:16;94423.69;;;2.10;100.00
52105;BME280;38103;42.776;23.112;2022-11-15T05:52:44;94418.59;;;2.17;100.00
52105;BME280;38103;42.776;23.112;2022-11-15T05:55:11;94412.97;;;1.97;100.00
52105;BME280;38103;42.776;23.112;2022-11-15T05:57:37;94384.00;;;1.83;100.00
52105;BME280;38103;42.776;23.112;2022-11-15T06:00:04;94427.06;;;2.19;100.00
52105;BME280;38103;42.776;23.112;2022-11-15T06:02:29;94431.72;;;2.32;100.00
52105;BME280;38103;42.776;23.112;2022-11-15T06:04:55;94419.75;;;2.47;100.00
52105;BME280;38103;42.776;23.112;2022-11-15T06:07:20;94415.06;;;2.42;100.00
52105;BME280;38103;42.776;23.112;2022-11-15T06:09:45;94417.00;;;2.40;100.00
52105;BME280;38103;42.776;23.112;2022-11-15T06:12:11;94415.66;;;2.52;100.00
52105;BME280;38103;42.776;23.112;2022-11-15T06:14:36;94416.22;;;2.39;100.00
52105;BME280;38103;42.776;23.112;2022-11-15T06:17:01;94414.06;;;2.11;100.00
52105;BME280;38103;42.776;23.112;2022-11-15T06:19:27;94409.81;;;2.10;100.00
52105;BME280;38103;42.776;23.112;2022-11-15T06:21:58;94414.59;;;1.98;100.00
52105;BME280;38103;42.776;23.112;2022-11-15T06:24:23;94420.88;;;1.80;100.00
52105;BME280;38103;42.776;23.112;2022-11-15T06:26:48;94420.47;;;1.92;100.00
52105;BME280;38103;42.776;23.112;2022-11-15T06:40:53;94408.34;;;2.95;100.00
52105;BME280;38103;42.776;23.112;2022-11-15T06:43:19;94412.81;;;2.86;100.00
52105;BME280;38103;42.776;23.112;2022-11-15T06:45:44;94407.06;;;2.90;100.00
52105;BME280;38103;42.776;23.112;2022-11-15T06:48:10;94408.00;;;2.74;100.00
52105;BME280;38103;42.776;23.112;2022-11-15T06:50:35;94411.66;;;2.33;100.00
52105;BME280;38103;42.776;23.112;2022-11-15T06:53:02;94406.94;;;2.37;100.00
52105;BME280;38103;42.776;23.112;2022-11-15T06:55:28;94409.47;;;2.21;100.00
52105;BME280;38103;42.776;23.112;2022-11-15T06:57:53;94410.34;;;2.05;100.00
52105;BME280;38103;42.776;23.112;2022-11-15T07:00:21;94390.22;;;1.82;100.00
52105;BME280;38103;42.776;23.112;2022-11-15T07:02:47;94416.53;;;2.04;100.00
52105;BME280;38103;42.776;23.112;2022-11-15T07:05:13;94389.06;;;1.85;100.00
52105;BME280;38103;42.776;23.112;2022-11-15T07:07:39;94429.00;;;1.77;100.00
52105;BME280;38103;42.776;23.112;2022-11-15T07:10:05;94420.19;;;1.78;100.00
52105;BME280;38103;42.776;23.112;2022-11-15T07:12:31;94418.66;;;1.52;100.00
52105;BME280;38103;42.776;23.112;2022-11-15T07:14:57;94407.59;;;1.41;100.00
52105;BME280;38103;42.776;23.112;2022-11-15T07:17:22;94418.28;;;1.63;100.00
52105;BME280;38103;42.776;23.112;2022-11-15T07:19:47;94413.69;;;1.74;100.00
52105;BME280;38103;42.776;23.112;2022-11-15T07:22:13;94387.63;;;1.74;100.00
52105;BME280;38103;42.776;23.112;2022-11-15T07:24:38;94420.75;;;2.05;100.00
52105;BME280;38103;42.776;23.112;2022-11-15T07:27:04;94418.16;;;2.05;100.00
52105;BME280;38103;42.776;23.112;2022-11-15T07:29:29;94414.53;;;2.15;100.00
52105;BME280;38103;42.776;23.112;2022-11-15T07:31:54;94407.59;;;2.30;100.00
52105;BME280;38103;42.776;23.112;2022-11-15T07:34:20;94420.66;;;2.30;100.00
52105;BME280;38103;42.776;23.112;2022-11-15T07:36:45;94417.00;;;2.40;100.00
52105;BME280;38103;42.776;23.112;2022-11-15T07:39:10;94416.50;;;2.12;100.00
52105;BME280;38103;42.776;23.112;2022-11-15T07:41:37;94420.75;;;2.05;100.00
52105;BME280;38103;42.776;23.112;2022-11-15T07:44:03;94418.19;;;1.97;100.00
52105;BME280;38103;42.776;23.112;2022-11-15T07:46:29;94387.66;;;1.65;100.00
52105;BME280;38103;42.776;23.112;2022-11-15T07:48:55;94420.75;;;2.05;100.00
52105;BME280;38103;42.776;23.112;2022-11-15T07:51:20;94419.91;;;2.13;100.00
52105;BME280;38103;42.776;23.112;2022-11-15T07:53:45;94413.88;;;2.12;100.00
52105;BME280;38103;42.776;23.112;2022-11-15T07:56:11;94351.38;;;1.96;100.00
52105;BME280;38103;42.776;23.112;2022-11-15T07:58:37;94412.16;;;2.37;100.00
52105;BME280;38103;42.776;23.112;2022-11-15T08:01:04;94410.50;;;2.36;100.00
52105;BME280;38103;42.776;23.112;2022-11-15T08:03:30;94408.91;;;2.34;100.00
52105;BME280;38103;42.776;23.112;2022-11-15T08:05:55;94397.00;;;2.55;100.00
52105;BME280;38103;42.776;23.112;2022-11-15T08:08:20;94401.25;;;2.56;100.00
52105;BME280;38103;42.776;23.112;2022-11-15T08:10:46;94392.50;;;2.17;100.00
52105;BME280;38103;42.776;23.112;2022-11-15T08:13:12;94397.56;;;2.19;100.00
52105;BME280;38103;42.776;23.112;2022-11-15T08:15:38;94401.34;;;2.40;100.00
52105;BME280;38103;42.776;23.112;2022-11-15T08:18:06;94395.91;;;2.26;100.00
52105;BME280;38103;42.776;23.112;2022-11-15T08:20:33;94399.69;;;2.15;100.00
52105;BME280;38103;42.776;23.112;2022-11-15T08:23:01;94394.25;;;2.25;100.00
52105;BME280;38103;42.776;23.112;2022-11-15T08:25:28;94392.94;;;2.29;100.00
52105;BME280;38103;42.776;23.112;2022-11-15T08:27:55;94392.75;;;2.31;100.00
52105;BME280;38103;42.776;23.112;2022-11-15T08:30:22;94391.34;;;2.20;100.00
52105;BME280;38103;42.776;23.112;2022-11-15T08:32:48;94336.59;;;2.11;100.00
52105;BME280;38103;42.776;23.112;2022-11-15T08:35:14;94381.75;;;2.44;100.00
52105;BME280;38103;42.776;23.112;2022-11-15T08:37:40;94380.75;;;2.45;100.00
52105;BME280;38103;42.776;23.112;2022-11-15T08:40:06;94382.50;;;2.53;100.00
52105;BME280;38103;42.776;23.112;2022-11-15T08:42:31;94378.44;;;2.50;100.00
52105;BME280;38103;42.776;23.112;2022-11-15T08:44:57;94385.47;;;2.26;100.00
52105;BME280;38103;42.776;23.112;2022-11-15T08:47:22;94380.38;;;2.56;100.00
52105;BME280;38103;42.776;23.112;2022-11-15T08:49:48;94362.16;;;2.48;100.00
52105;BME280;38103;42.776;23.112;2022-11-15T08:52:14;94374.56;;;2.70;100.00
52105;BME280;38103;42.776;23.112;2022-11-15T08:54:39;94368.72;;;2.44;100.00
52105;BME280;38103;42.776;23.112;2022-11-15T08:57:06;94368.16;;;2.25;100.00
52105;BME280;38103;42.776;23.112;2022-11-15T08:59:31;94367.97;;;2.03;100.00
52105;BME280;38103;42.776;23.112;2022-11-15T09:01:57;94359.72;;;2.23;100.00
52105;BME280;38103;42.776;23.112;2022-11-15T09:04:22;94366.09;;;2.44;100.00
52105;BME280;38103;42.776;23.112;2022-11-15T09:06:48;94371.31;;;2.44;100.00
52105;BME280;38103;42.776;23.112;2022-11-15T09:09:13;94358.44;;;2.19;100.00
52105;BME280;38103;42.776;23.112;2022-11-15T09:11:39;94357.53;;;2.03;100.00
52105;BME280;38103;42.776;23.112;2022-11-15T09:14:04;94351.50;;;2.34;100.00
52105;BME280;38103;42.776;23.112;2022-11-15T09:16:30;94290.69;;;2.02;100.00
52105;BME280;38103;42.776;23.112;2022-11-15T09:18:56;94342.56;;;2.52;100.00
52105;BME280;38103;42.776;23.112;2022-11-15T09:21:21;94293.84;;;2.21;100.00
52105;BME280;38103;42.776;23.112;2022-11-15T09:23:50;94346.47;;;2.25;100.00
52105;BME280;38103;42.776;23.112;2022-11-15T09:26:16;94332.66;;;2.24;100.00
52105;BME280;38103;42.776;23.112;2022-11-15T09:28:41;94329.19;;;2.32;100.00
52105;BME280;38103;42.776;23.112;2022-11-15T09:31:07;94309.63;;;2.51;100.00
52105;BME280;38103;42.776;23.112;2022-11-15T09:33:33;94306.50;;;2.71;100.00
52105;BME280;38103;42.776;23.112;2022-11-15T09:36:08;94310.16;;;2.85;100.00
52105;BME280;38103;42.776;23.112;2022-11-15T09:38:34;94267.34;;;2.71;100.00
52105;BME280;38103;42.776;23.112;2022-11-15T10:03:56;94284.50;;;3.04;100.00
52105;BME280;38103;42.776;23.112;2022-11-15T10:06:25;94276.34;;;2.68;100.00
52105;BME280;38103;42.776;23.112;2022-11-15T10:08:59;94285.56;;;2.79;100.00
52105;BME280;38103;42.776;23.112;2022-11-15T10:11:28;94273.88;;;2.52;100.00
52105;BME280;38103;42.776;23.112;2022-11-15T10:14:01;94260.59;;;2.62;100.00
52105;BME280;38103;42.776;23.112;2022-11-15T10:19:37;94271.53;;;2.81;100.00
52105;BME280;38103;42.776;23.112;2022-11-15T10:22:39;94269.47;;;2.91;100.00
52105;BME280;38103;42.776;23.112;2022-11-15T10:27:33;94258.38;;;2.89;100.00
52105;BME280;38103;42.776;23.112;2022-11-15T10:29:59;94262.34;;;2.85;100.00
52105;BME280;38103;42.776;23.112;2022-11-15T10:32:25;94251.25;;;2.83;100.00
52105;BME280;38103;42.776;23.112;2022-11-15T10:34:50;94250.25;;;2.84;100.00
52105;BME280;38103;42.776;23.112;2022-11-15T10:37:36;94250.72;;;3.03;100.00
52105;BME280;38103;42.776;23.112;2022-11-15T10:40:04;94244.16;;;3.07;100.00
52105;BME280;38103;42.776;23.112;2022-11-15T10:42:29;94234.50;;;3.22;100.00
52105;BME280;38103;42.776;23.112;2022-11-15T10:44:55;94220.38;;;3.32;100.00
52105;BME280;38103;42.776;23.112;2022-11-15T10:49:58;94218.16;;;3.51;100.00
52105;BME280;38103;42.776;23.112;2022-11-15T10:52:24;94213.44;;;3.61;100.00
52105;BME280;38103;42.776;23.112;2022-11-15T10:55:03;94210.72;;;3.69;100.00
52105;BME280;38103;42.776;23.112;2022-11-15T10:57:33;94212.88;;;3.81;100.00
52105;BME280;38103;42.776;23.112;2022-11-15T11:02:38;94198.41;;;3.85;100.00
52105;BME280;38103;42.776;23.112;2022-11-15T11:08:04;94191.31;;;4.01;100.00
52105;BME280;38103;42.776;23.112;2022-11-15T11:10:30;94196.56;;;4.01;100.00
52105;BME280;38103;42.776;23.112;2022-11-15T11:13:15;94175.84;;;3.84;100.00
52105;BME280;38103;42.776;23.112;2022-11-15T11:15:47;94198.78;;;3.82;100.00
52105;BME280;38103;42.776;23.112;2022-11-15T11:18:33;94194.56;;;4.03;100.00
52105;BME280;38103;42.776;23.112;2022-11-15T11:21:09;94183.53;;;3.86;100.00
52105;BME280;38103;42.776;23.112;2022-11-15T11:26:29;94172.50;;;3.90;100.00
52105;BME280;38103;42.776;23.112;2022-11-15T11:31:51;94149.25;;;4.24;100.00
52105;BME280;38103;42.776;23.112;2022-11-15T11:43:22;94138.53;;;4.48;100.00
52105;BME280;38103;42.776;23.112;2022-11-15T11:46:02;94140.06;;;4.35;100.00
52105;BME280;38103;42.776;23.112;2022-11-15T11:49:04;94126.81;;;4.44;100.00
52105;BME280;38103;42.776;23.112;2022-11-15T11:51:46;94127.97;;;4.34;100.00
52105;BME280;38103;42.776;23.112;2022-11-15T11:54:20;94125.22;;;4.43;100.00
52105;BME280;38103;42.776;23.112;2022-11-15T11:56:47;94118.22;;;4.50;100.00
52105;BME280;38103;42.776;23.112;2022-11-15T11:59:22;94119.19;;;4.49;100.00
52105;BME280;38103;42.776;23.112;2022-11-15T12:01:51;94094.09;;;4.62;100.00
52105;BME280;38103;42.776;23.112;2022-11-15T12:06:56;94100.59;;;4.73;100.00
52105;BME280;38103;42.776;23.112;2022-11-15T12:12:39;94094.63;;;4.86;100.00
52105;BME280;38103;42.776;23.112;2022-11-15T12:17:36;94079.47;;;4.81;100.00
52105;BME280;38103;42.776;23.112;2022-11-15T12:22:43;94081.22;;;5.16;100.00
52105;BME280;38103;42.776;23.112;2022-11-15T12:25:18;94090.47;;;5.12;100.00
52105;BME280;38103;42.776;23.112;2022-11-15T12:27:49;94086.50;;;5.30;100.00
52105;BME280;38103;42.776;23.112;2022-11-15T12:30:18;94075.63;;;5.46;100.00
52105;BME280;38103;42.776;23.112;2022-11-15T12:32:54;94070.03;;;5.56;100.00
52105;BME280;38103;42.776;23.112;2022-11-15T12:35:27;94065.59;;;5.64;100.00
52105;BME280;38103;42.776;23.112;2022-11-15T12:37:56;94069.03;;;5.64;100.00
52105;BME280;38103;42.776;23.112;2022-11-15T12:40:25;94068.00;;;5.58;100.00
52105;BME280;38103;42.776;23.112;2022-11-15T12:45:34;94028.00;;;5.22;100.00
52105;BME280;38103;42.776;23.112;2022-11-15T12:51:01;94045.59;;;5.56;100.00
52105;BME280;38103;42.776;23.112;2022-11-15T12:53:27;94047.44;;;5.69;100.00
52105;BME280;38103;42.776;23.112;2022-11-15T12:58:51;94038.53;;;6.04;100.00
52105;BME280;38103;42.776;23.112;2022-11-15T13:12:11;94030.44;;;5.99;100.00
52105;BME280;38103;42.776;23.112;2022-11-15T13:17:46;94017.53;;;5.90;100.00
52105;BME280;38103;42.776;23.112;2022-11-15T13:30:37;94008.69;;;5.85;100.00
52105;BME280;38103;42.776;23.112;2022-11-15T13:33:13;94010.50;;;5.98;100.00
52105;BME280;38103;42.776;23.112;2022-11-15T13:35:41;94010.50;;;5.98;100.00
52105;BME280;38103;42.776;23.112;2022-11-15T13:38:25;94015.09;;;5.96;100.00
52105;BME280;38103;42.776;23.112;2022-11-15T13:40:56;94022.78;;;6.04;100.00
52105;BME280;38103;42.776;23.112;2022-11-15T13:48:34;93980.03;;;5.63;100.00
52105;BME280;38103;42.776;23.112;2022-11-15T13:51:06;93974.38;;;5.52;100.00
52105;BME280;38103;42.776;23.112;2022-11-15T13:53:37;93996.78;;;5.62;100.00
52105;BME280;38103;42.776;23.112;2022-11-15T13:56:04;94016.34;;;5.59;100.00
52105;BME280;38103;42.776;23.112;2022-11-15T13:58:30;94009.47;;;5.58;100.00
52105;BME280;38103;42.776;23.112;2022-11-15T14:01:00;94017.97;;;5.60;100.00
52105;BME280;38103;42.776;23.112;2022-11-15T14:03:29;94011.13;;;5.59;100.00
52105;BME280;38103;42.776;23.112;2022-11-15T14:06:09;94010.31;;;5.58;100.00
52105;BME280;38103;42.776;23.112;2022-11-15T14:08:42;94013.53;;;5.74;100.00
52105;BME280;38103;42.776;23.112;2022-11-15T14:11:22;94007.47;;;5.74;100.00
52105;BME280;38103;42.776;23.112;2022-11-15T14:14:20;94003.41;;;5.44;100.00
52105;BME280;38103;42.776;23.112;2022-11-15T14:16:50;94002.63;;;5.57;100.00
52105;BME280;38103;42.776;23.112;2022-11-15T14:22:16;94003.81;;;5.88;100.00
52105;BME280;38103;42.776;23.112;2022-11-15T14:24:47;93996.34;;;5.99;100.00
52105;BME280;38103;42.776;23.112;2022-11-15T14:29:46;94001.78;;;6.18;100.00
52105;BME280;38103;42.776;23.112;2022-11-15T14:32:16;93999.94;;;6.25;100.00
52105;BME280;38103;42.776;23.112;2022-11-15T14:34:42;94007.81;;;6.32;100.00
52105;BME280;38103;42.776;23.112;2022-11-15T14:37:28;93998.91;;;6.40;100.00
52105;BME280;38103;42.776;23.112;2022-11-15T14:39:54;93998.69;;;6.41;100.00
52105;BME280;38103;42.776;23.112;2022-11-15T14:42:21;93984.34;;;6.44;100.00
52105;BME280;38103;42.776;23.112;2022-11-15T14:44:47;93998.06;;;6.46;100.00
52105;BME280;38103;42.776;23.112;2022-11-15T14:47:12;93992.19;;;6.51;100.00
52105;BME280;38103;42.776;23.112;2022-11-15T14:49:38;93986.72;;;6.52;100.00
52105;BME280;38103;42.776;23.112;2022-11-15T14:52:12;93986.13;;;6.57;100.00
52105;BME280;38103;42.776;23.112;2022-11-15T14:54:41;93979.09;;;6.44;100.00
52105;BME280;38103;42.776;23.112;2022-11-15T14:57:06;93986.56;;;6.40;100.00
52105;BME280;38103;42.776;23.112;2022-11-15T14:59:32;93978.66;;;6.47;100.00
52105;BME280;38103;42.776;23.112;2022-11-15T15:01:57;93973.81;;;6.51;100.00
52105;BME280;38103;42.776;23.112;2022-11-15T15:04:24;93970.84;;;6.26;100.00
52105;BME280;38103;42.776;23.112;2022-11-15T15:06:49;93970.72;;;6.08;100.00
52105;BME280;38103;42.776;23.112;2022-11-15T15:09:14;93969.88;;;6.21;100.00
52105;BME280;38103;42.776;23.112;2022-11-15T15:11:40;93966.22;;;6.29;100.00
52105;BME280;38103;42.776;23.112;2022-11-15T15:14:05;93959.75;;;6.31;100.00
52105;BME280;38103;42.776;23.112;2022-11-15T15:16:30;93956.19;;;5.91;100.00
52105;BME280;38103;42.776;23.112;2022-11-15T15:18:56;93959.84;;;5.63;100.00
52105;BME280;38103;42.776;23.112;2022-11-15T15:21:28;93934.44;;;5.57;100.00
52105;BME280;38103;42.776;23.112;2022-11-15T15:23:54;93956.59;;;5.81;100.00
52105;BME280;38103;42.776;23.112;2022-11-15T15:26:20;93954.59;;;5.84;100.00
52105;BME280;38103;42.776;23.112;2022-11-15T15:28:45;93964.88;;;5.85;100.00
52105;BME280;38103;42.776;23.112;2022-11-15T15:31:11;93961.84;;;5.81;100.00
52105;BME280;38103;42.776;23.112;2022-11-15T15:33:37;93964.66;;;5.80;100.00
52105;BME280;38103;42.776;23.112;2022-11-15T15:36:03;93964.91;;;5.72;100.00